Time;durP1;ratioP1;P1;durP2;ratioP2;P2;SDS_P1;SDS_P2;PMS_P1;PMS_P2;Temp;Humidity;BMP_temperature;BMP_pressure;BME280_temperature;BME280_humidity;BME280_pressure;Samples;Min_cycle;Max_cycle;Signal;HPM_P1;HPM_P2
2022/08/26 00:01:50;;;;;;;25.67;15.52;;;;;;;19.85;100.00;100412.88;4951911;28;20156;-69
2022/08/26 00:04:15;;;;;;;20.27;13.80;;;;;;;19.49;100.00;100349.47;4943002;28;20481;-68
2022/08/26 00:06:41;;;;;;;24.15;14.20;;;;;;;19.80;100.00;100407.94;4952988;28;20069;-68
2022/08/26 00:09:07;;;;;;;21.48;13.48;;;;;;;19.78;100.00;100414.41;4951743;28;20114;-68
2022/08/26 00:11:32;;;;;;;15.50;10.82;;;;;;;19.77;100.00;100418.88;4951859;28;20108;-68
2022/08/26 00:13:58;;;;;;;14.45;10.98;;;;;;;19.73;100.00;100416.63;4952732;28;20051;-68
2022/08/26 00:16:25;;;;;;;20.33;11.93;;;;;;;19.80;100.00;100439.13;4952608;28;20055;-68
2022/08/26 00:18:51;;;;;;;19.20;11.77;;;;;;;19.65;100.00;100429.78;4950607;28;20081;-68
2022/08/26 00:21:17;;;;;;;15.43;10.60;;;;;;;19.60;100.00;100421.34;4940540;28;20023;-69
2022/08/26 00:23:43;;;;;;;21.98;11.25;;;;;;;19.74;100.00;100452.97;4953316;28;20509;-69
2022/08/26 00:26:08;;;;;;;25.48;12.23;;;;;;;19.70;100.00;100448.91;4952579;28;20050;-68
2022/08/26 00:28:34;;;;;;;18.92;11.98;;;;;;;19.68;100.00;100457.03;4952688;28;20132;-68
2022/08/26 00:30:59;;;;;;;22.30;11.23;;;;;;;19.66;100.00;100450.16;4952433;28;20035;-68
2022/08/26 00:33:25;;;;;;;19.25;12.02;;;;;;;19.64;100.00;100457.41;4946748;28;20039;-68
2022/08/26 00:35:50;;;;;;;14.30;9.85;;;;;;;19.62;100.00;100449.56;4946511;28;20059;-70
2022/08/26 00:38:16;;;;;;;15.02;10.43;;;;;;;19.60;100.00;100448.03;4952603;28;20102;-70
2022/08/26 00:40:48;;;;;;;16.88;10.82;;;;;;;19.58;100.00;100450.81;4935779;28;20055;-71
2022/08/26 00:43:14;;;;;;;11.98;8.65;;;;;;;19.14;100.00;100389.78;4951890;28;20031;-71
2022/08/26 00:45:43;;;;;;;19.05;9.48;;;;;;;19.55;100.00;100450.22;4951205;28;20027;-70
2022/08/26 00:48:10;;;;;;;14.25;8.05;;;;;;;19.52;100.00;100450.50;4950926;29;20046;-70
2022/08/26 00:50:40;;;;;;;15.02;8.70;;;;;;;19.50;100.00;100457.78;4941498;29;20424;-70
2022/08/26 00:53:20;;;;;;;19.58;9.13;;;;;;;19.48;100.00;100457.06;4935089;28;20035;-70
2022/08/26 00:55:57;;;;;;;18.02;9.80;;;;;;;19.40;100.00;100455.00;4936714;29;20089;-69
2022/08/26 00:58:23;;;;;;;14.45;7.35;;;;;;;19.43;100.00;100461.97;4939218;29;20039;-70
2022/08/26 01:00:49;;;;;;;10.80;7.30;;;;;;;19.41;100.00;100462.06;4939887;29;20031;-70
2022/08/26 01:03:16;;;;;;;11.25;7.90;;;;;;;19.45;100.00;100458.19;4947013;28;20081;-70
2022/08/26 01:05:41;;;;;;;20.77;8.15;;;;;;;19.35;100.00;100443.91;4935260;29;20061;-70
2022/08/26 01:08:07;;;;;;;8.82;6.40;;;;;;;19.46;100.00;100453.69;4951635;29;20051;-70
2022/08/26 01:10:32;;;;;;;13.57;7.07;;;;;;;19.41;100.00;100447.91;4952240;28;20118;-69
2022/08/26 01:13:01;;;;;;;14.80;6.60;;;;;;;19.48;100.00;100462.38;5017538;28;20031;-68
2022/08/26 01:15:33;;;;;;;12.85;6.97;;;;;;;19.46;100.00;100467.03;4946403;28;20031;-69
2022/08/26 01:18:00;;;;;;;13.77;6.70;;;;;;;19.48;100.00;100471.25;4951626;28;20027;-70
2022/08/26 01:20:56;;;;;;;10.43;4.97;;;;;;;19.49;100.00;100472.09;4966601;28;20031;-69
2022/08/26 01:23:23;;;;;;;20.65;6.20;;;;;;;19.44;100.00;100464.47;4933402;28;20034;-69
2022/08/26 01:25:53;;;;;;;11.98;5.93;;;;;;;19.44;100.00;100474.28;5021750;28;20489;-69
2022/08/26 01:28:22;;;;;;;11.85;6.90;;;;;;;19.44;100.00;100468.97;4955658;28;20039;-69
2022/08/26 01:30:50;;;;;;;15.25;5.05;;;;;;;19.44;100.00;100468.97;4935970;28;20449;-70
2022/08/26 01:33:18;;;;;;;9.90;5.25;;;;;;;19.48;100.00;100481.06;5014780;28;20051;-69
2022/08/26 01:35:46;;;;;;;13.25;5.53;;;;;;;19.50;100.00;100476.44;5011143;28;20058;-69
2022/08/26 01:38:11;;;;;;;13.02;6.07;;;;;;;19.48;100.00;100475.72;4951546;28;20027;-69
2022/08/26 01:40:38;;;;;;;8.88;5.25;;;;;;;19.55;100.00;100476.88;4951257;28;20037;-68
2022/08/26 01:43:06;;;;;;;8.73;4.82;;;;;;;19.58;100.00;100482.78;4955069;28;20027;-68
2022/08/26 01:45:34;;;;;;;11.05;4.07;;;;;;;19.37;100.00;100445.47;4944882;28;20023;-68
2022/08/26 01:48:01;;;;;;;8.30;4.93;;;;;;;19.61;100.00;100481.69;4966619;28;20024;-67
2022/08/26 01:50:31;;;;;;;9.65;4.47;;;;;;;19.60;100.00;100480.00;4934024;29;20039;-68
2022/08/26 01:53:00;;;;;;;8.30;4.85;;;;;;;19.61;100.00;100487.00;4951530;28;20489;-68
2022/08/26 01:55:26;;;;;;;18.85;5.30;;;;;;;19.27;100.00;100436.56;5017306;28;20559;-68
2022/08/26 01:57:54;;;;;;;10.57;5.28;;;;;;;19.52;100.00;100487.81;4951250;28;20058;-68
2022/08/26 02:00:19;;;;;;;10.05;4.82;;;;;;;19.51;100.00;100488.78;5017346;28;20389;-68
2022/08/26 02:02:47;;;;;;;11.32;5.30;;;;;;;19.48;100.00;100483.72;4944444;29;20039;-68
2022/08/26 02:05:19;;;;;;;8.82;4.30;;;;;;;19.49;100.00;100494.25;4934412;28;20058;-68
2022/08/26 02:07:45;;;;;;;13.65;5.10;;;;;;;19.14;100.00;100429.75;4951216;28;20485;-68
2022/08/26 02:10:11;;;;;;;15.80;4.85;;;;;;;19.32;100.00;100477.00;4951157;29;20032;-69
2022/08/26 02:12:37;;;;;;;7.28;4.68;;;;;;;19.43;100.00;100488.59;4950573;29;20032;-69
2022/08/26 02:15:07;;;;;;;7.38;3.67;;;;;;;19.42;100.00;100484.25;4951259;28;20026;-69
2022/08/26 02:17:41;;;;;;;8.05;4.75;;;;;;;19.47;100.00;100506.84;4950799;28;20061;-70
2022/08/26 02:20:07;;;;;;;9.88;4.63;;;;;;;19.30;100.00;100484.28;4956712;28;20040;-70
2022/08/26 02:22:33;;;;;;;12.60;5.18;;;;;;;19.48;100.00;100507.69;4942622;28;20925;-69
2022/08/26 02:25:07;;;;;;;9.07;3.70;;;;;;;19.50;100.00;100505.78;4950103;28;20106;-70
2022/08/26 02:27:33;;;;;;;11.00;3.90;;;;;;;19.52;100.00;100509.13;4932846;28;20043;-70
2022/08/26 02:30:12;;;;;;;10.27;4.97;;;;;;;19.52;100.00;100504.66;4933878;29;20027;-70
2022/08/26 02:32:37;;;;;;;10.07;4.60;;;;;;;19.57;100.00;100502.44;4967578;28;20388;-71
2022/08/26 02:35:03;;;;;;;12.80;4.18;;;;;;;19.55;100.00;100498.22;4947964;28;20023;-69
2022/08/26 02:37:30;;;;;;;8.07;4.43;;;;;;;19.55;100.00;100492.88;4946719;28;20501;-70
2022/08/26 02:39:56;;;;;;;11.88;4.72;;;;;;;19.53;100.00;100500.19;4926787;28;20071;-70
2022/08/26 02:42:21;;;;;;;10.38;4.20;;;;;;;19.53;100.00;100501.03;4952744;28;20097;-70
2022/08/26 02:44:47;;;;;;;7.70;4.07;;;;;;;19.53;100.00;100514.34;4953721;28;20035;-70
2022/08/26 02:47:14;;;;;;;14.52;4.85;;;;;;;19.49;100.00;100512.06;4952362;28;20043;-68
2022/08/26 02:49:41;;;;;;;12.82;4.72;;;;;;;19.30;100.00;100484.28;4956341;28;20038;-68
2022/08/26 02:52:07;;;;;;;8.15;4.43;;;;;;;19.38;100.00;100492.47;4954615;29;20051;-70
2022/08/26 02:54:32;;;;;;;10.07;3.72;;;;;;;18.95;100.00;100414.50;4953194;28;20525;-69
2022/08/26 02:56:58;;;;;;;9.70;4.57;;;;;;;19.38;100.00;100495.13;4953002;28;20038;-69
2022/08/26 02:59:23;;;;;;;10.60;4.28;;;;;;;19.37;100.00;100487.25;4952457;28;20031;-70
2022/08/26 03:01:48;;;;;;;9.40;4.45;;;;;;;19.39;100.00;100493.31;4952182;28;20043;-70
2022/08/26 03:04:14;;;;;;;9.10;4.28;;;;;;;19.41;100.00;100496.72;4954381;28;20028;-69
2022/08/26 03:06:40;;;;;;;11.68;5.13;;;;;;;19.38;100.00;100492.47;4950298;28;20035;-69
2022/08/26 03:09:05;;;;;;;7.03;3.80;;;;;;;19.39;100.00;100493.31;4953898;28;20043;-69
2022/08/26 03:11:31;;;;;;;9.65;5.22;;;;;;;19.27;100.00;100481.88;4953819;28;20405;-69
2022/08/26 03:13:57;;;;;;;9.73;3.70;;;;;;;19.35;100.00;100503.41;4946003;28;20465;-69
2022/08/26 03:16:23;;;;;;;8.77;4.57;;;;;;;19.34;100.00;100493.69;4948793;28;20118;-69
2022/08/26 03:18:48;;;;;;;11.60;4.90;;;;;;;19.31;100.00;100483.31;4953534;28;20102;-69
2022/08/26 03:21:16;;;;;;;7.07;4.43;;;;;;;19.36;100.00;100485.59;4953498;28;20031;-69
2022/08/26 03:23:42;;;;;;;9.90;4.43;;;;;;;19.37;100.00;100492.59;4953843;29;20037;-69
2022/08/26 03:26:09;;;;;;;9.23;5.05;;;;;;;19.37;100.00;100490.78;4953275;28;20023;-69
2022/08/26 03:28:35;;;;;;;10.98;4.60;;;;;;;19.36;100.00;100499.75;4953838;28;20028;-70
2022/08/26 03:31:00;;;;;;;8.10;4.30;;;;;;;19.33;100.00;100489.34;4968314;28;20089;-69
2022/08/26 03:33:26;;;;;;;11.18;4.20;;;;;;;19.36;100.00;100480.25;4953636;29;20023;-71
2022/08/26 03:35:52;;;;;;;9.10;4.43;;;;;;;19.39;100.00;100482.66;4968595;28;20118;-70
2022/08/26 03:38:19;;;;;;;13.15;4.85;;;;;;;19.32;100.00;100487.66;4935705;28;20591;-70
2022/08/26 03:40:45;;;;;;;9.95;4.65;;;;;;;19.29;100.00;100487.94;4936346;28;20035;-70
2022/08/26 03:43:11;;;;;;;10.45;4.60;;;;;;;19.24;100.00;100478.63;4953451;28;20497;-70
2022/08/26 03:45:37;;;;;;;12.32;5.90;;;;;;;19.31;100.00;100493.97;4949145;28;20027;-69
2022/08/26 03:48:03;;;;;;;9.63;4.57;;;;;;;19.25;100.00;100486.50;4953554;29;20043;-70
2022/08/26 03:50:29;;;;;;;9.10;4.82;;;;;;;19.28;100.00;100490.72;4949244;28;20379;-71
2022/08/26 03:52:55;;;;;;;9.05;4.30;;;;;;;19.23;100.00;100482.28;4950333;28;20038;-71
2022/08/26 03:55:24;;;;;;;12.40;4.47;;;;;;;19.07;100.00;100460.56;4952874;28;20035;-70
2022/08/26 03:57:50;;;;;;;18.73;5.53;;;;;;;19.02;100.00;100449.47;5019126;28;20092;-70
2022/08/26 04:00:15;;;;;;;7.32;4.43;;;;;;;19.25;100.00;100501.63;4943203;28;20040;-70
2022/08/26 04:02:45;;;;;;;12.27;4.88;;;;;;;19.24;100.00;100482.13;4949580;28;20041;-70
2022/08/26 04:05:16;;;;;;;11.15;5.38;;;;;;;19.23;100.00;100493.75;4935467;28;20066;-70
2022/08/26 04:07:42;;;;;;;13.80;5.35;;;;;;;19.05;100.00;100463.38;4934171;29;20039;-69
2022/08/26 04:10:08;;;;;;;9.40;5.40;;;;;;;19.19;100.00;100487.03;4935622;28;20027;-69
2022/08/26 04:12:36;;;;;;;8.70;5.13;;;;;;;19.13;100.00;100470.72;4941660;28;20058;-70
2022/08/26 04:15:04;;;;;;;10.68;5.93;;;;;;;19.20;100.00;100491.34;4940328;28;20058;-69
2022/08/26 04:17:29;;;;;;;10.27;5.55;;;;;;;19.17;100.00;100483.63;4923072;28;20028;-70
2022/08/26 04:19:54;;;;;;;10.85;4.72;;;;;;;19.09;100.00;100482.59;4927556;28;20390;-71
2022/08/26 04:22:20;;;;;;;13.35;5.88;;;;;;;19.07;100.00;100473.88;4947022;28;20081;-70
2022/08/26 04:24:45;;;;;;;11.30;5.10;;;;;;;19.12;100.00;100488.50;4952853;28;20130;-70
2022/08/26 04:27:11;;;;;;;9.38;4.95;;;;;;;19.06;100.00;100481.00;4939409;28;20497;-71
2022/08/26 04:29:37;;;;;;;7.93;4.55;;;;;;;19.16;100.00;100500.56;4950389;29;20024;-69
2022/08/26 04:32:03;;;;;;;14.00;6.13;;;;;;;19.10;100.00;100486.94;4952624;28;20069;-68
2022/08/26 04:34:29;;;;;;;9.95;5.07;;;;;;;18.99;100.00;100466.56;4942417;28;20035;-68
2022/08/26 04:36:55;;;;;;;12.27;5.43;;;;;;;18.79;100.00;100430.91;4954999;28;20039;-68
2022/08/26 04:39:20;;;;;;;12.10;5.88;;;;;;;18.97;100.00;100463.16;4952719;28;20073;-69
2022/08/26 04:41:47;;;;;;;11.85;5.35;;;;;;;19.11;100.00;100480.63;4989875;28;20035;-68
2022/08/26 04:44:13;;;;;;;10.32;5.53;;;;;;;18.88;100.00;100451.47;4952272;28;20389;-68
2022/08/26 04:46:39;;;;;;;9.15;5.20;;;;;;;19.11;100.00;100483.31;4952779;28;20486;-68
2022/08/26 04:49:07;;;;;;;10.02;5.15;;;;;;;19.12;100.00;100485.84;4957296;28;20027;-68
2022/08/26 04:51:33;;;;;;;10.15;5.03;;;;;;;19.14;100.00;100491.88;4948124;28;20023;-68
2022/08/26 04:53:58;;;;;;;14.60;4.82;;;;;;;19.17;100.00;100499.63;4935002;28;20035;-68
2022/08/26 04:56:31;;;;;;;10.02;4.43;;;;;;;19.10;100.00;100487.78;4946907;28;20076;-69
2022/08/26 04:58:56;;;;;;;11.63;5.05;;;;;;;19.22;100.00;100502.75;4951832;29;20031;-69
2022/08/26 05:01:22;;;;;;;7.70;4.68;;;;;;;19.13;100.00;100494.69;4945914;28;20042;-69
2022/08/26 05:03:48;;;;;;;14.35;5.00;;;;;;;19.12;100.00;100504.50;4975106;28;20400;-69
2022/08/26 05:06:14;;;;;;;9.38;4.30;;;;;;;19.06;100.00;100499.66;4942271;28;20077;-69
2022/08/26 05:08:40;;;;;;;7.75;4.47;;;;;;;19.09;100.00;100512.75;4950036;28;20050;-68
2022/08/26 05:11:06;;;;;;;8.88;4.55;;;;;;;19.00;100.00;100500.19;4951477;28;20485;-69
2022/08/26 05:13:33;;;;;;;8.05;4.25;;;;;;;19.03;100.00;100507.09;4951998;28;20030;-69
2022/08/26 05:16:03;;;;;;;9.23;4.25;;;;;;;19.03;100.00;100507.91;4951923;29;20023;-69
2022/08/26 05:18:29;;;;;;;9.70;5.35;;;;;;;18.99;100.00;100503.84;4951823;28;20432;-68
2022/08/26 05:20:54;;;;;;;12.25;4.22;;;;;;;19.02;100.00;100516.03;4951429;28;20042;-69
2022/08/26 05:23:21;;;;;;;10.38;4.63;;;;;;;19.00;100.00;100517.97;4946377;28;20039;-70
2022/08/26 05:25:47;;;;;;;9.38;6.28;;;;;;;19.01;100.00;100520.53;4939177;28;20482;-69
2022/08/26 05:28:15;;;;;;;12.55;4.13;;;;;;;18.93;100.00;100496.34;4941013;28;20512;-68
2022/08/26 05:30:40;;;;;;;11.93;4.43;;;;;;;19.02;100.00;100514.22;4930439;28;20035;-68
2022/08/26 05:33:07;;;;;;;11.48;4.20;;;;;;;19.00;100.00;100513.50;4951068;29;20085;-68
2022/08/26 05:35:33;;;;;;;7.45;3.78;;;;;;;18.95;100.00;100515.72;4950222;28;20088;-72
2022/08/26 05:38:00;;;;;;;8.02;4.38;;;;;;;18.99;100.00;100519.81;4929974;28;20023;-68
2022/08/26 05:40:27;;;;;;;9.60;4.78;;;;;;;19.01;100.00;100519.66;4937674;28;20110;-68
2022/08/26 05:42:52;;;;;;;14.48;4.90;;;;;;;18.72;100.00;100482.16;4949414;29;20446;-68
2022/08/26 05:45:19;;;;;;;9.48;4.47;;;;;;;18.96;100.00;100517.38;4950906;28;20118;-69
2022/08/26 05:47:44;;;;;;;10.48;5.07;;;;;;;18.98;100.00;100523.44;4945592;29;20111;-71
2022/08/26 05:50:10;;;;;;;13.65;4.65;;;;;;;18.96;100.00;100522.72;4996490;28;20050;-68
2022/08/26 05:52:36;;;;;;;6.70;3.75;;;;;;;19.05;100.00;100532.63;4936829;28;20484;-70
2022/08/26 05:55:02;;;;;;;8.95;4.22;;;;;;;19.09;100.00;100536.72;4946983;28;20085;-70
2022/08/26 05:57:28;;;;;;;9.98;5.72;;;;;;;19.11;100.00;100537.44;4945762;28;20024;-70
2022/08/26 05:59:55;;;;;;;10.90;4.90;;;;;;;18.90;100.00;100509.91;4949453;28;20035;-68
2022/08/26 06:02:20;;;;;;;9.18;4.32;;;;;;;18.97;100.00;100524.41;4950345;28;20043;-70
2022/08/26 06:04:46;;;;;;;15.38;4.85;;;;;;;19.10;100.00;100545.53;4950809;28;20069;-71
2022/08/26 06:07:11;;;;;;;7.10;3.90;;;;;;;19.12;100.00;100544.47;4927484;28;20031;-69
2022/08/26 06:09:37;;;;;;;10.80;4.47;;;;;;;19.13;100.00;100545.31;4917386;28;20050;-69
2022/08/26 06:12:02;;;;;;;8.15;4.10;;;;;;;19.08;100.00;100523.53;4934964;28;20034;-70
2022/08/26 06:14:29;;;;;;;11.27;5.72;;;;;;;18.79;100.00;100475.34;4943858;28;20035;-69
2022/08/26 06:16:55;;;;;;;9.98;4.70;;;;;;;19.11;100.00;100536.59;4950881;28;20042;-69
2022/08/26 06:19:20;;;;;;;8.45;4.57;;;;;;;19.19;100.00;100542.13;4950496;28;20031;-68
2022/08/26 06:21:47;;;;;;;7.05;3.97;;;;;;;19.20;100.00;100551.78;4950501;28;20077;-69
2022/08/26 06:27:12;;;;;;;;;;;;;;;19.23;100.00;100555.03;5001409;28;20037;-69
2022/08/26 06:29:37;;;;;;;10.50;4.38;;;;;;;19.25;100.00;100554.94;4944140;28;19922;-69
2022/08/26 06:32:03;;;;;;;9.13;4.03;;;;;;;19.28;100.00;100563.50;4996716;28;20047;-69
2022/08/26 06:34:29;;;;;;;6.88;3.92;;;;;;;19.27;100.00;100553.81;4929177;28;20027;-68
2022/08/26 06:36:56;;;;;;;7.00;3.60;;;;;;;19.16;100.00;100523.75;4950404;28;20061;-69
2022/08/26 06:39:22;;;;;;;7.05;3.65;;;;;;;19.31;100.00;100549.94;4965377;28;20488;-69
2022/08/26 06:41:47;;;;;;;8.00;4.15;;;;;;;19.31;100.00;100547.25;4950732;28;20035;-69
2022/08/26 06:44:17;;;;;;;9.95;4.90;;;;;;;19.35;100.00;100548.69;4949668;28;20323;-69
2022/08/26 06:46:42;;;;;;;6.63;3.50;;;;;;;19.27;100.00;100537.84;4949055;28;20024;-70
2022/08/26 06:49:09;;;;;;;7.47;3.92;;;;;;;19.38;100.00;100556.44;4932342;28;20058;-69
2022/08/26 06:51:35;;;;;;;10.00;3.63;;;;;;;19.37;100.00;100554.75;4935079;28;20039;-68
2022/08/26 06:54:02;;;;;;;7.60;4.60;;;;;;;19.37;100.00;100552.06;4931438;28;20038;-69
2022/08/26 06:56:32;;;;;;;7.03;3.88;;;;;;;19.33;100.00;100552.47;4949962;28;20069;-69
2022/08/26 06:58:58;;;;;;;9.85;3.80;;;;;;;18.98;100.00;100496.81;4950903;29;20501;-69
2022/08/26 07:01:26;;;;;;;9.15;4.10;;;;;;;19.33;100.00;100563.97;4950231;28;20038;-70
2022/08/26 07:03:54;;;;;;;7.75;3.47;;;;;;;19.27;100.00;100553.81;4950416;28;20050;-69
2022/08/26 07:06:20;;;;;;;9.90;4.53;;;;;;;19.26;100.00;100552.13;4938804;28;20031;-69
2022/08/26 07:08:50;;;;;;;7.32;4.03;;;;;;;19.16;100.00;100539.72;4937473;28;20098;-72
2022/08/26 07:11:15;;;;;;;9.60;3.50;;;;;;;19.14;100.00;100541.66;4934207;28;20035;-70
2022/08/26 07:13:41;;;;;;;10.60;4.60;;;;;;;19.33;100.00;100569.28;4924496;28;20074;-68
2022/08/26 07:16:08;;;;;;;10.48;3.70;;;;;;;19.34;100.00;100568.31;4950364;28;20035;-69
2022/08/26 07:18:35;;;;;;;5.68;3.65;;;;;;;19.38;100.00;100564.44;4930597;28;20054;-68
2022/08/26 07:21:02;;;;;;;6.72;4.28;;;;;;;19.25;100.00;100549.59;4953560;28;20027;-68
2022/08/26 07:23:27;;;;;;;9.48;4.47;;;;;;;19.29;100.00;100565.22;4952881;28;20436;-68
2022/08/26 07:25:53;;;;;;;9.95;4.00;;;;;;;19.35;100.00;100567.34;4953016;28;20040;-69
2022/08/26 07:28:18;;;;;;;6.47;3.40;;;;;;;19.37;100.00;100572.53;4938014;28;20031;-69
2022/08/26 07:30:44;;;;;;;5.82;3.30;;;;;;;19.33;100.00;100547.97;4940153;28;20035;-68
2022/08/26 07:33:09;;;;;;;5.38;3.38;;;;;;;19.43;100.00;100564.09;4939664;28;20043;-70
2022/08/26 07:35:35;;;;;;;8.35;3.53;;;;;;;19.43;100.00;100576.56;4940791;28;20258;-69
2022/08/26 07:38:00;;;;;;;11.52;5.07;;;;;;;19.36;100.00;100568.22;4944881;28;20056;-68
2022/08/26 07:40:26;;;;;;;9.73;3.70;;;;;;;19.22;100.00;100548.03;4950141;28;20027;-68
2022/08/26 07:42:51;;;;;;;7.47;3.88;;;;;;;19.38;100.00;100580.44;4968238;28;20031;-68
2022/08/26 07:45:16;;;;;;;6.93;3.85;;;;;;;19.37;100.00;100583.19;4938144;28;20047;-68
2022/08/26 07:47:42;;;;;;;9.75;3.50;;;;;;;19.35;100.00;100579.84;4940544;28;20118;-68
2022/08/26 07:50:07;;;;;;;7.15;2.95;;;;;;;19.29;100.00;100572.34;4938875;28;20023;-68
2022/08/26 07:52:36;;;;;;;8.93;3.70;;;;;;;19.35;100.00;100583.34;4947408;28;20055;-68
2022/08/26 07:55:03;;;;;;;6.78;3.20;;;;;;;19.41;100.00;100587.34;4948615;28;20035;-68
2022/08/26 07:57:29;;;;;;;9.90;3.47;;;;;;;19.41;100.00;100586.50;4943853;28;20078;-68
2022/08/26 07:59:55;;;;;;;8.35;3.55;;;;;;;19.33;100.00;100574.63;4937186;28;20063;-69
2022/08/26 08:02:20;;;;;;;4.65;2.55;;;;;;;19.43;100.00;100576.56;4938115;28;20042;-68
2022/08/26 08:04:46;;;;;;;6.68;3.28;;;;;;;19.51;100.00;100576.75;4945773;28;20031;-67
2022/08/26 08:07:11;;;;;;;12.68;5.90;;;;;;;19.58;100.00;100584.09;4933095;28;20031;-68
2022/08/26 08:09:36;;;;;;;8.55;3.53;;;;;;;19.61;100.00;100589.19;4947948;28;20113;-68
2022/08/26 08:12:03;;;;;;;6.43;4.75;;;;;;;19.64;100.00;100585.41;4944790;28;20492;-68
2022/08/26 08:14:29;;;;;;;5.20;2.38;;;;;;;19.48;100.00;100550.34;4952968;28;20081;-70
2022/08/26 08:16:54;;;;;;;6.50;2.83;;;;;;;19.63;100.00;100587.25;4952645;28;20023;-69
2022/08/26 08:19:19;;;;;;;7.60;2.80;;;;;;;19.70;100.00;100588.38;4951772;28;20518;-68
2022/08/26 08:21:45;;;;;;;6.05;2.60;;;;;;;19.78;100.00;100590.41;4946280;28;20035;-69
2022/08/26 08:24:11;;;;;;;6.65;2.47;;;;;;;19.78;100.00;100580.59;4948427;28;20544;-68
2022/08/26 08:26:36;;;;;;;5.05;2.55;;;;;;;19.71;100.00;100555.41;4948911;28;20035;-68
2022/08/26 08:29:02;;;;;;;5.45;2.45;;;;;;;20.02;100.00;100588.31;4935100;28;20031;-68
2022/08/26 08:31:30;;;;;;;5.25;2.40;;;;;;;19.88;100.00;100549.47;4937985;28;20047;-67
2022/08/26 08:33:55;;;;;;;12.48;2.80;;;;;;;20.25;100.00;100584.47;4947226;28;20032;-68
2022/08/26 08:36:21;;;;;;;6.60;3.15;;;;;;;20.23;100.00;100575.78;4952638;28;20033;-69
2022/08/26 08:38:47;;;;;;;6.65;2.30;;;;;;;20.39;100.00;100602.84;4952070;28;20369;-68
2022/08/26 08:41:43;;;;;;;6.25;2.72;;;;;;;20.36;100.00;100603.13;4937749;28;20040;-67
2022/08/26 08:44:17;;;;;;;5.90;2.03;;;;;;;20.34;100.00;100599.75;4956549;28;20039;-68
2022/08/26 08:46:43;;;;;;;7.65;2.70;;;;;;;20.29;100.00;100577.94;4946136;28;20074;-68
2022/08/26 08:49:09;;;;;;;5.13;2.30;;;;;;;20.36;100.00;100596.94;4944060;28;20062;-68
2022/08/26 08:51:48;;;;;;;7.45;2.40;;;;;;;20.32;100.00;100599.00;4930207;28;20039;-69
2022/08/26 08:54:13;;;;;;;5.18;2.05;;;;;;;20.31;100.00;100599.16;4942261;28;20031;-68
2022/08/26 08:57:21;;;;;;;5.57;2.45;;;;;;;20.36;100.00;100597.78;4937553;28;21288;-69
2022/08/26 08:59:55;;;;;;;7.22;2.15;;;;;;;20.48;100.00;100603.03;4948465;28;20054;-67
2022/08/26 09:02:21;;;;;;;5.10;1.83;;;;;;;20.56;100.00;100600.50;4934545;28;20031;-68
2022/08/26 09:05:09;;;;;;;10.05;1.90;;;;;;;20.64;100.00;100603.34;4951880;28;20038;-68
2022/08/26 09:07:38;;;;;;;4.75;1.88;;;;;;;20.61;100.00;100600.97;4933057;28;20035;-68
2022/08/26 09:10:23;;;;;;;14.32;2.60;;;;;;;20.56;100.00;100606.69;4936138;28;20028;-68
2022/08/26 09:12:49;;;;;;;6.55;2.28;;;;;;;20.35;100.00;100566.72;4939653;28;20039;-67
2022/08/26 09:15:21;;;;;;;4.82;1.75;;;;;;;20.37;100.00;100570.09;4935104;29;20567;-68
2022/08/26 09:17:58;;;;;;;5.65;2.00;;;;;;;20.59;100.00;100613.59;5001136;28;20042;-68
2022/08/26 09:20:37;;;;;;;5.50;1.52;;;;;;;20.56;100.00;100608.50;4940332;29;20028;-68
2022/08/26 09:23:03;;;;;;;6.88;1.65;;;;;;;20.56;100.00;100614.69;4935189;29;20039;-67
2022/08/26 09:25:28;;;;;;;5.55;2.05;;;;;;;20.51;100.00;100624.09;4935851;28;20584;-68
2022/08/26 09:27:54;;;;;;;8.38;2.10;;;;;;;20.05;100.00;100565.84;4934209;28;20032;-68
2022/08/26 09:30:28;;;;;;;4.22;1.95;;;;;;;20.35;100.00;100614.75;4935916;28;20031;-68
2022/08/26 09:32:59;;;;;;;4.97;1.70;;;;;;;20.36;100.00;100623.63;4938169;28;20032;-68
2022/08/26 09:35:29;;;;;;;4.72;1.67;;;;;;;20.39;100.00;100618.84;4934225;28;20470;-68
2022/08/26 09:37:55;;;;;;;3.95;1.52;;;;;;;20.44;100.00;100621.13;4936604;29;20113;-68
2022/08/26 09:40:31;;;;;;;4.03;1.73;;;;;;;20.51;100.00;100613.44;4937892;28;20059;-69
2022/08/26 09:43:18;;;;;;;4.40;1.73;;;;;;;20.51;100.00;100626.78;4941109;28;20394;-68
2022/08/26 09:45:46;;;;;;;8.82;2.08;;;;;;;20.53;100.00;100617.66;4942483;28;20035;-70
2022/08/26 09:48:26;;;;;;;7.03;1.92;;;;;;;20.50;100.00;100619.75;4936302;28;20542;-68
2022/08/26 09:50:54;;;;;;;8.10;2.30;;;;;;;20.57;100.00;100626.22;4929498;28;20172;-68
2022/08/26 09:53:27;;;;;;;3.95;1.90;;;;;;;20.62;100.00;100629.31;4947444;28;20030;-67
2022/08/26 09:56:51;;;;;;;6.28;2.05;;;;;;;20.70;100.00;100624.16;4951249;28;20035;-69
2022/08/26 09:59:28;;;;;;;5.38;1.88;;;;;;;20.68;100.00;100623.47;4945371;29;20046;-68
2022/08/26 10:01:54;;;;;;;8.98;1.88;;;;;;;20.75;100.00;100621.94;4950844;29;20067;-68
2022/08/26 10:04:22;;;;;;;7.28;2.22;;;;;;;20.73;100.00;100622.06;4933563;28;20077;-67
2022/08/26 10:07:02;;;;;;;4.65;1.80;;;;;;;20.39;100.00;100567.28;4937952;28;20073;-67
2022/08/26 10:09:32;;;;;;;6.60;1.95;;;;;;;20.72;100.00;100615.03;4935310;28;20027;-68
2022/08/26 10:12:01;;;;;;;6.65;2.10;;;;;;;20.65;100.00;100586.34;4941025;28;20035;-68
2022/08/26 10:14:47;;;;;;;7.22;1.92;;;;;;;20.87;100.00;100618.16;4950929;29;20027;-69
2022/08/26 10:17:18;;;;;;;8.80;2.30;;;;;;;20.88;100.00;100609.19;4954304;28;20050;-67
2022/08/26 10:19:49;;;;;;;6.00;2.10;;;;;;;21.02;100.00;100615.97;5004581;28;20549;-68
2022/08/26 10:22:25;;;;;;;6.80;2.22;;;;;;;21.02;100.00;100602.59;4947307;28;20035;-67
2022/08/26 10:24:55;;;;;;;3.13;1.42;;;;;;;20.97;100.00;100603.00;4951225;28;20037;-67
2022/08/26 10:27:35;;;;;;;9.32;2.22;;;;;;;21.02;100.00;100608.75;4924481;28;20031;-67
2022/08/26 10:30:09;;;;;;;5.32;1.80;;;;;;;20.93;100.00;100606.94;4940404;28;20031;-68
2022/08/26 10:32:47;;;;;;;7.97;2.00;;;;;;;20.97;100.00;100618.19;4930281;28;20042;-68
2022/08/26 10:35:16;;;;;;;3.40;1.63;;;;;;;20.96;100.00;100606.66;4933779;29;20433;-68
2022/08/26 10:37:48;;;;;;;5.10;2.03;;;;;;;20.85;100.00;100572.06;4933764;29;20473;-68
2022/08/26 10:40:22;;;;;;;5.35;2.05;;;;;;;21.10;100.00;100603.59;4956560;28;20039;-68
2022/08/26 10:42:52;;;;;;;5.20;1.80;;;;;;;21.04;100.00;100596.13;4927295;29;20035;-67
2022/08/26 10:45:21;;;;;;;4.90;1.80;;;;;;;21.10;100.00;100602.75;5013860;28;20081;-69
2022/08/26 10:47:47;;;;;;;4.57;2.05;;;;;;;21.12;100.00;100607.00;4922539;28;20039;-69
2022/08/26 10:50:12;;;;;;;4.38;2.35;;;;;;;21.02;100.00;100592.72;4934406;28;20085;-68
2022/08/26 10:52:45;;;;;;;5.45;2.45;;;;;;;21.07;100.00;100603.00;4933229;28;20023;-67
2022/08/26 10:55:16;;;;;;;9.18;2.35;;;;;;;20.94;100.00;100605.94;4954007;28;20029;-67
2022/08/26 10:57:45;;;;;;;8.05;2.38;;;;;;;20.91;100.00;100608.91;5019046;28;20385;-68
2022/08/26 11:03:37;;;;;;;5.72;2.65;;;;;;;20.73;100.00;100632.75;5009669;28;20050;-67
2022/08/26 11:06:18;;;;;;;6.93;2.90;;;;;;;20.63;100.00;100629.22;4932847;28;20039;-68
2022/08/26 11:08:55;;;;;;;6.55;3.13;;;;;;;20.51;100.00;100616.09;4943243;28;20030;-68
2022/08/26 11:11:45;;;;;;;11.32;3.47;;;;;;;20.47;100.00;100625.34;4918120;28;20035;-67
2022/08/26 11:14:16;;;;;;;5.88;3.25;;;;;;;20.38;100.00;100627.84;4940241;29;20043;-67
2022/08/26 11:16:47;;;;;;;7.72;3.38;;;;;;;19.76;100.00;100614.56;4940984;28;20027;-68
2022/08/26 11:19:40;;;;;;;10.25;4.72;;;;;;;19.17;100.00;100622.16;4937988;29;20069;-71
2022/08/26 11:22:23;;;;;;;9.52;5.15;;;;;;;18.81;100.00;100617.19;4936852;29;20034;-76
2022/08/26 11:24:51;;;;;;;15.55;6.75;;;;;;;18.52;100.00;100621.34;5012151;28;20027;-79
2022/08/26 11:27:25;;;;;;;16.80;7.45;;;;;;;18.23;100.00;100607.63;4937640;28;20527;-82